Time,TemperatureF,DewpointF,PressureIn,WindDirection,WindDirectionDegrees,WindSpeedMPH,WindSpeedGustMPH,Humidity,HourlyPrecipIn,Conditions,Clouds,dailyrainin,SoftwareType,DateUTC
2013-04-26 00:03:00,48.2,36.6,30.10,SSW,202,0.0,2.9,64,0.00,,,0.00,WUHU21623XXSP,2013-04-26 07:03:00,
2013-04-26 00:08:00,48.0,36.8,30.10,SSW,202,4.7,4.7,65,0.00,,,0.00,WUHU21623XXSP,2013-04-26 07:08:00,
2013-04-26 00:13:00,48.2,37.0,30.10,South,180,6.3,6.3,65,0.00,,,0.00,WUHU21623XXSP,2013-04-26 07:13:00,
2013-04-26 00:18:00,48.6,37.4,30.10,SSW,202,2.2,6.3,65,0.00,,,0.00,WUHU21623XXSP,2013-04-26 07:18:00,
2013-04-26 00:23:00,48.7,37.5,30.10,SSW,202,7.6,8.3,65,0.00,,,0.00,WUHU21623XXSP,2013-04-26 07:23:00,
2013-04-26 00:28:00,48.9,37.7,30.10,SSW,202,8.3,8.3,65,0.00,,,0.00,WUHU21623XXSP,2013-04-26 07:28:00,
2013-04-26 00:33:00,49.3,37.7,30.10,SSW,202,8.3,8.3,64,0.00,,,0.00,WUHU21623XXSP,2013-04-26 07:33:00,
2013-04-26 00:38:00,49.6,37.9,30.11,South,180,7.4,8.3,64,0.00,,,0.00,WUHU21623XXSP,2013-04-26 07:38:00,
2013-04-26 00:43:00,49.8,38.1,30.10,South,180,3.6,8.3,64,0.00,,,0.00,WUHU21623XXSP,2013-04-26 07:43:00,
2013-04-26 00:48:00,49.8,37.7,30.10,SSW,202,0.7,7.4,63,0.00,,,0.00,WUHU21623XXSP,2013-04-26 07:48:00,
2013-04-26 00:53:00,49.8,37.7,30.10,SSW,202,3.6,4.9,63,0.00,,,0.00,WUHU21623XXSP,2013-04-26 07:53:00,
2013-04-26 00:58:00,49.6,37.5,30.10,SSW,202,1.6,3.8,63,0.00,,,0.00,WUHU21623XXSP,2013-04-26 07:58:00,
2013-04-26 01:02:00,49.6,37.5,30.10,SSW,202,1.6,3.8,63,0.00,,,0.00,WUHU21623XXSP,2013-04-26 08:02:00,
2013-04-26 01:07:00,49.8,37.7,30.10,South,180,8.1,8.1,63,0.00,,,0.00,WUHU21623XXSP,2013-04-26 08:07:00,
2013-04-26 01:12:00,49.8,37.7,30.10,South,180,8.1,8.1,63,0.00,,,0.00,WUHU21623XXSP,2013-04-26 08:12:00,
2013-04-26 01:17:00,49.6,37.9,30.10,South,180,4.3,8.1,64,0.00,,,0.00,WUHU21623XXSP,2013-04-26 08:17:00,
2013-04-26 01:22:00,49.5,37.9,30.10,South,180,4.3,4.3,64,0.00,,,0.00,WUHU21623XXSP,2013-04-26 08:22:00,
2013-04-26 01:27:00,49.3,37.7,30.10,South,180,6.0,6.0,64,0.00,,,0.00,WUHU21623XXSP,2013-04-26 08:27:00,
2013-04-26 01:32:00,49.3,37.7,30.10,SSW,202,8.7,8.7,64,0.00,,,0.00,WUHU21623XXSP,2013-04-26 08:32:00,
2013-04-26 01:37:00,49.3,37.7,30.10,South,180,7.6,8.7,64,0.00,,,0.00,WUHU21623XXSP,2013-04-26 08:37:00,
2013-04-26 01:42:00,49.3,37.7,30.10,South,180,7.4,7.6,64,0.00,,,0.00,WUHU21623XXSP,2013-04-26 08:42:00,
2013-04-26 01:47:00,48.9,37.7,30.10,South,180,0.0,7.4,65,0.00,,,0.00,WUHU21623XXSP,2013-04-26 08:47:00,
2013-04-26 01:52:00,48.6,37.4,30.10,South,180,8.3,8.3,65,0.00,,,0.00,WUHU21623XXSP,2013-04-26 08:52:00,
2013-04-26 01:57:00,48.4,37.6,30.10,South,180,7.4,8.3,66,0.00,,,0.00,WUHU21623XXSP,2013-04-26 08:57:00,
2013-04-26 02:02:00,48.0,37.2,30.10,South,180,2.5,8.3,66,0.00,,,0.00,WUHU21623XXSP,2013-04-26 09:02:00,
2013-04-26 02:07:00,47.7,37.3,30.10,South,180,2.5,6.3,67,0.00,,,0.00,WUHU21623XXSP,2013-04-26 09:07:00,
2013-04-26 02:12:00,47.5,37.1,30.10,South,180,6.9,6.9,67,0.00,,,0.00,WUHU21623XXSP,2013-04-26 09:12:00,
2013-04-26 02:17:00,47.3,36.5,30.11,South,180,0.0,6.9,66,0.00,,,0.00,WUHU21623XXSP,2013-04-26 09:17:00,
2013-04-26 02:22:00,47.1,36.3,30.11,South,180,0.0,6.9,66,0.00,,,0.00,WUHU21623XXSP,2013-04-26 09:22:00,
2013-04-26 02:27:00,46.6,36.3,30.10,South,180,0.0,0.0,67,0.00,,,0.00,WUHU21623XXSP,2013-04-26 09:27:00,
2013-04-26 02:32:00,45.9,35.6,30.12,South,180,0.0,5.6,67,0.00,,,0.00,WUHU21623XXSP,2013-04-26 09:32:00,
2013-04-26 02:37:00,45.3,35.0,30.11,SSW,202,0.0,5.6,67,0.00,,,0.00,WUHU21623XXSP,2013-04-26 09:37:00,
2013-04-26 02:42:00,45.0,35.1,30.12,SSW,202,3.6,3.6,68,0.00,,,0.00,WUHU21623XXSP,2013-04-26 09:42:00,
2013-04-26 02:47:00,44.8,35.6,30.12,South,180,4.5,5.8,70,0.00,,,0.00,WUHU21623XXSP,2013-04-26 09:47:00,
2013-04-26 02:52:00,45.0,35.8,30.12,SSW,202,1.1,5.8,70,0.00,,,0.00,WUHU21623XXSP,2013-04-26 09:52:00,
2013-04-26 02:57:00,45.0,35.8,30.11,SSW,202,6.5,6.5,70,0.00,,,0.00,WUHU21623XXSP,2013-04-26 09:57:00,
2013-04-26 03:02:00,45.0,35.8,30.12,SSW,202,6.9,6.9,70,0.00,,,0.00,WUHU21623XXSP,2013-04-26 10:02:00,
2013-04-26 03:07:00,45.0,35.8,30.12,South,180,7.2,7.2,70,0.00,,,0.00,WUHU21623XXSP,2013-04-26 10:07:00,
2013-04-26 03:12:00,45.1,36.3,30.12,South,180,8.3,8.3,71,0.00,,,0.00,WUHU21623XXSP,2013-04-26 10:12:00,
2013-04-26 03:17:00,45.1,35.9,30.12,South,180,7.8,8.3,70,0.00,,,0.00,WUHU21623XXSP,2013-04-26 10:17:00,
2013-04-26 03:22:00,45.0,35.8,30.12,SSW,202,3.4,7.8,70,0.00,,,0.00,WUHU21623XXSP,2013-04-26 10:22:00,
2013-04-26 03:27:00,44.4,35.6,30.12,SSW,202,0.7,7.8,71,0.00,,,0.00,WUHU21623XXSP,2013-04-26 10:27:00,
2013-04-26 03:32:00,43.9,35.1,30.12,SSW,202,0.0,3.6,71,0.00,,,0.00,WUHU21623XXSP,2013-04-26 10:32:00,
2013-04-26 03:37:00,43.5,34.7,30.12,SSW,202,4.0,4.0,71,0.00,,,0.00,WUHU21623XXSP,2013-04-26 10:37:00,
2013-04-26 03:42:00,43.5,35.1,30.12,SSW,202,6.3,6.3,72,0.00,,,0.00,WUHU21623XXSP,2013-04-26 10:42:00,
2013-04-26 03:47:00,43.3,35.2,30.12,South,180,0.0,6.3,73,0.00,,,0.00,WUHU21623XXSP,2013-04-26 10:47:00,
2013-04-26 03:52:00,43.0,34.9,30.12,South,180,0.0,2.5,73,0.00,,,0.00,WUHU21623XXSP,2013-04-26 10:52:00,
2013-04-26 03:57:00,42.4,34.4,30.12,South,180,0.0,0.0,73,0.00,,,0.00,WUHU21623XXSP,2013-04-26 10:57:00,
2013-04-26 04:02:00,41.7,33.7,30.12,South,180,0.0,0.0,73,0.00,,,0.00,WUHU21623XXSP,2013-04-26 11:02:00,
2013-04-26 04:07:00,41.5,33.8,30.12,South,180,0.0,0.0,74,0.00,,,0.00,WUHU21623XXSP,2013-04-26 11:07:00,
2013-04-26 04:12:00,41.5,33.8,30.13,South,180,2.7,2.7,74,0.00,,,0.00,WUHU21623XXSP,2013-04-26 11:12:00,
2013-04-26 04:17:00,41.7,34.7,30.13,SSE,157,1.6,2.7,76,0.00,,,0.00,WUHU21623XXSP,2013-04-26 11:17:00,
2013-04-26 04:22:00,41.7,35.0,30.13,SSE,157,7.8,7.8,77,0.00,,,0.00,WUHU21623XXSP,2013-04-26 11:22:00,
2013-04-26 04:27:00,41.9,35.2,30.14,SSW,202,3.8,7.8,77,0.00,,,0.00,WUHU21623XXSP,2013-04-26 11:27:00,
2013-04-26 04:32:00,42.1,35.1,30.14,SSW,202,6.5,8.3,76,0.00,,,0.00,WUHU21623XXSP,2013-04-26 11:32:00,
2013-04-26 04:38:00,42.4,35.4,30.13,South,180,1.1,8.3,76,0.00,,,0.00,WUHU21623XXSP,2013-04-26 11:38:00,
2013-04-26 04:42:00,42.1,35.1,30.13,South,180,4.5,4.5,76,0.00,,,0.00,WUHU21623XXSP,2013-04-26 11:42:00,
2013-04-26 04:47:00,41.7,34.4,30.13,South,180,5.8,5.8,75,0.00,,,0.00,WUHU21623XXSP,2013-04-26 11:47:00,
2013-04-26 04:52:00,41.5,34.5,30.14,South,180,8.3,8.3,76,0.00,,,0.00,WUHU21623XXSP,2013-04-26 11:52:00,
2013-04-26 04:57:00,41.5,34.5,30.14,South,180,4.5,8.3,76,0.00,,,0.00,WUHU21623XXSP,2013-04-26 11:57:00,
2013-04-26 05:02:00,41.5,34.8,30.13,SSW,202,3.4,6.5,77,0.00,,,0.00,WUHU21623XXSP,2013-04-26 12:02:00,
2013-04-26 05:07:00,41.7,35.0,30.14,SSW,202,8.1,8.1,77,0.00,,,0.00,WUHU21623XXSP,2013-04-26 12:07:00,
2013-04-26 05:12:00,41.7,35.0,30.14,South,180,4.7,8.1,77,0.00,,,0.00,WUHU21623XXSP,2013-04-26 12:12:00,
2013-04-26 05:17:00,41.5,34.8,30.14,SSW,202,1.3,7.4,77,0.00,,,0.00,WUHU21623XXSP,2013-04-26 12:17:00,
2013-04-26 05:22:00,41.5,34.8,30.14,SSW,202,5.4,7.4,77,0.00,,,0.00,WUHU21623XXSP,2013-04-26 12:22:00,
2013-04-26 05:27:00,41.2,34.5,30.14,SSW,202,3.4,5.4,77,0.00,,,0.00,WUHU21623XXSP,2013-04-26 12:27:00,
2013-04-26 05:32:00,40.8,34.1,30.14,SSW,202,4.7,4.7,77,0.00,,,0.00,WUHU21623XXSP,2013-04-26 12:32:00,
2013-04-26 05:37:00,40.8,34.4,30.14,SSW,202,4.7,4.7,78,0.00,,,0.00,WUHU21623XXSP,2013-04-26 12:37:00,
2013-04-26 05:42:00,40.8,34.4,30.14,South,180,1.6,4.7,78,0.00,,,0.00,WUHU21623XXSP,2013-04-26 12:42:00,
2013-04-26 05:47:00,40.3,34.0,30.15,SSW,202,0.4,2.5,78,0.00,,,0.00,WUHU21623XXSP,2013-04-26 12:47:00,
2013-04-26 05:52:00,40.1,33.8,30.15,SSW,202,0.4,0.4,78,0.00,,,0.00,WUHU21623XXSP,2013-04-26 12:52:00,
2013-04-26 05:57:00,40.1,33.8,30.15,SSW,202,8.3,8.3,78,0.00,,,0.00,WUHU21623XXSP,2013-04-26 12:57:00,
2013-04-26 06:02:00,40.3,34.3,30.15,South,180,0.0,8.3,79,0.00,,,0.00,WUHU21623XXSP,2013-04-26 13:02:00,
2013-04-26 06:07:00,41.0,35.0,30.15,South,180,1.3,3.6,79,0.00,,,0.00,WUHU21623XXSP,2013-04-26 13:07:00,
2013-04-26 06:12:00,42.1,36.3,30.15,South,180,4.3,4.3,80,0.00,,,0.00,WUHU21623XXSP,2013-04-26 13:12:00,
2013-04-26 06:17:00,44.2,37.8,30.15,South,180,7.4,7.4,78,0.00,,,0.00,WUHU21623XXSP,2013-04-26 13:17:00,
2013-04-26 06:22:00,45.3,38.2,30.16,South,180,7.4,7.4,76,0.00,,,0.00,WUHU21623XXSP,2013-04-26 13:22:00,
2013-04-26 06:27:00,46.2,38.7,30.15,South,180,0.0,7.4,75,0.00,,,0.00,WUHU21623XXSP,2013-04-26 13:27:00,
2013-04-26 06:32:00,46.6,38.4,30.16,SSW,202,6.3,7.4,73,0.00,,,0.00,WUHU21623XXSP,2013-04-26 13:32:00,
2013-04-26 06:37:00,46.9,38.7,30.16,South,180,4.0,6.3,73,0.00,,,0.00,WUHU21623XXSP,2013-04-26 13:37:00,
2013-04-26 06:42:00,47.1,38.6,30.16,South,180,4.0,6.3,72,0.00,,,0.00,WUHU21623XXSP,2013-04-26 13:42:00,
2013-04-26 06:47:00,48.7,40.1,30.16,South,180,1.8,6.9,72,0.00,,,0.00,WUHU21623XXSP,2013-04-26 13:47:00,
2013-04-26 06:52:00,50.7,41.7,30.17,South,180,2.0,8.7,71,0.00,,,0.00,WUHU21623XXSP,2013-04-26 13:52:00,
2013-04-26 06:57:00,52.2,42.0,30.17,SSW,202,8.3,8.7,68,0.00,,,0.00,WUHU21623XXSP,2013-04-26 13:57:00,
2013-04-26 07:02:00,54.3,43.2,30.17,SSW,202,1.1,8.3,66,0.00,,,0.00,WUHU21623XXSP,2013-04-26 14:02:00,
2013-04-26 07:07:00,55.8,43.8,30.17,SSW,202,1.1,8.3,64,0.00,,,0.00,WUHU21623XXSP,2013-04-26 14:07:00,
2013-04-26 07:12:00,56.8,44.4,30.17,SSW,202,2.5,2.5,63,0.00,,,0.00,WUHU21623XXSP,2013-04-26 14:12:00,
2013-04-26 07:17:00,58.6,45.2,30.17,South,180,8.3,8.3,61,0.00,,,0.00,WUHU21623XXSP,2013-04-26 14:17:00,
2013-04-26 07:22:00,58.8,44.5,30.18,South,180,7.2,8.3,59,0.00,,,0.00,WUHU21623XXSP,2013-04-26 14:22:00,
2013-04-26 07:27:00,60.4,46.0,30.18,South,180,0.0,8.1,59,0.00,,,0.00,WUHU21623XXSP,2013-04-26 14:27:00,
2013-04-26 07:32:00,61.9,47.0,30.18,South,180,1.3,8.1,58,0.00,,,0.00,WUHU21623XXSP,2013-04-26 14:32:00,
2013-04-26 07:37:00,62.2,45.8,30.18,South,180,6.9,7.8,55,0.00,,,0.00,WUHU21623XXSP,2013-04-26 14:37:00,
2013-04-26 07:42:00,61.2,45.9,30.18,SSE,157,4.7,7.8,57,0.00,,,0.00,WUHU21623XXSP,2013-04-26 14:42:00,
2013-04-26 07:47:00,62.6,46.7,30.19,SSW,202,6.9,6.9,56,0.00,,,0.00,WUHU21623XXSP,2013-04-26 14:47:00,
2013-04-26 07:52:00,63.7,47.7,30.19,South,180,6.0,6.9,56,0.00,,,0.00,WUHU21623XXSP,2013-04-26 14:52:00,
2013-04-26 07:57:00,64.6,48.1,30.19,South,180,3.4,6.9,55,0.00,,,0.00,WUHU21623XXSP,2013-04-26 14:57:00,
2013-04-26 08:02:00,65.5,48.9,30.19,SSW,202,2.7,4.9,55,0.00,,,0.00,WUHU21623XXSP,2013-04-26 15:02:00,
2013-04-26 08:07:00,66.2,49.1,30.19,South,180,5.1,5.1,54,0.00,,,0.00,WUHU21623XXSP,2013-04-26 15:07:00,
2013-04-26 08:12:00,67.3,49.6,30.18,South,180,0.0,8.3,53,0.00,,,0.00,WUHU21623XXSP,2013-04-26 15:12:00,
2013-04-26 08:17:00,68.2,49.9,30.19,SW,225,7.8,8.3,52,0.00,,,0.00,WUHU21623XXSP,2013-04-26 15:17:00,
2013-04-26 08:22:00,68.9,50.0,30.19,SSW,202,2.9,7.8,51,0.00,,,0.00,WUHU21623XXSP,2013-04-26 15:22:00,
2013-04-26 08:27:00,70.3,50.7,30.20,SW,225,3.6,7.8,50,0.00,,,0.00,WUHU21623XXSP,2013-04-26 15:27:00,
2013-04-26 08:32:00,70.9,50.1,30.20,WSW,247,0.0,3.6,48,0.00,,,0.00,WUHU21623XXSP,2013-04-26 15:32:00,
2013-04-26 08:37:00,70.9,50.1,30.20,WSW,247,0.0,3.6,48,0.00,,,0.00,WUHU21623XXSP,2013-04-26 15:37:00,
2013-04-26 08:42:00,71.2,51.0,30.20,SSW,202,3.4,3.4,49,0.00,,,0.00,WUHU21623XXSP,2013-04-26 15:42:00,
2013-04-26 08:47:00,72.0,50.6,30.20,SW,225,7.4,7.4,47,0.00,,,0.00,WUHU21623XXSP,2013-04-26 15:47:00,
2013-04-26 08:52:00,72.1,51.2,30.20,South,180,7.8,7.8,48,0.00,,,0.00,WUHU21623XXSP,2013-04-26 15:52:00,
2013-04-26 08:55:00,71.8,50.4,30.20,SW,225,5.6,7.8,47,0.00,,,0.00,WUHU21623XXSP,2013-04-26 15:55:00,
2013-04-26 09:00:00,71.8,50.4,30.20,SW,225,7.4,7.4,47,0.00,,,0.00,WUHU21623XXSP,2013-04-26 16:00:00,
2013-04-26 09:06:00,71.4,50.6,30.20,SW,225,7.8,8.7,48,0.00,,,0.00,WUHU21623XXSP,2013-04-26 16:06:00,
2013-04-26 09:12:00,71.4,50.0,30.20,SW,225,6.0,8.7,47,0.00,,,0.00,WUHU21623XXSP,2013-04-26 16:12:00,
2013-04-26 09:27:00,72.1,50.1,30.20,SW,225,6.0,8.3,46,0.00,,,0.00,WUHU21623XXSP,2013-04-26 16:27:00,
2013-04-26 09:32:00,72.3,51.4,30.21,SW,225,0.0,5.8,48,0.00,,,0.00,WUHU21623XXSP,2013-04-26 16:32:00,
2013-04-26 09:37:00,73.0,51.5,30.21,SW,225,0.0,1.3,47,0.00,,,0.00,WUHU21623XXSP,2013-04-26 16:37:00,
2013-04-26 09:42:00,73.6,52.6,30.21,SSE,157,6.9,6.9,48,0.00,,,0.00,WUHU21623XXSP,2013-04-26 16:42:00,
2013-04-26 09:47:00,73.4,52.4,30.21,SSW,202,8.1,8.1,48,0.00,,,0.00,WUHU21623XXSP,2013-04-26 16:47:00,
2013-04-26 09:52:00,73.6,52.6,30.20,South,180,2.2,8.1,48,0.00,,,0.00,WUHU21623XXSP,2013-04-26 16:52:00,
2013-04-26 09:57:00,73.8,52.2,30.21,South,180,4.0,7.8,47,0.00,,,0.00,WUHU21623XXSP,2013-04-26 16:57:00,
2013-04-26 10:02:00,74.3,52.7,30.21,South,180,5.8,7.8,47,0.00,,,0.00,WUHU21623XXSP,2013-04-26 17:02:00,
2013-04-26 10:07:00,74.3,52.1,30.21,SW,225,8.3,8.3,46,0.00,,,0.00,WUHU21623XXSP,2013-04-26 17:07:00,
2013-04-26 10:12:00,74.1,51.9,30.21,SSW,202,8.3,8.3,46,0.00,,,0.00,WUHU21623XXSP,2013-04-26 17:12:00,
2013-04-26 10:17:00,73.9,51.7,30.21,SW,225,0.7,8.3,46,0.00,,,0.00,WUHU21623XXSP,2013-04-26 17:17:00,
2013-04-26 10:22:00,74.5,52.9,30.21,SSW,202,5.4,5.8,47,0.00,,,0.00,WUHU21623XXSP,2013-04-26 17:22:00,
2013-04-26 10:27:00,74.8,52.5,30.21,West,270,0.0,5.4,46,0.00,,,0.00,WUHU21623XXSP,2013-04-26 17:27:00,
2013-04-26 10:32:00,74.8,53.1,30.22,SW,225,8.1,8.1,47,0.00,,,0.00,WUHU21623XXSP,2013-04-26 17:32:00,
2013-04-26 10:37:00,75.0,52.1,30.21,South,180,8.1,8.1,45,0.00,,,0.00,WUHU21623XXSP,2013-04-26 17:37:00,
2013-04-26 10:42:00,73.8,51.6,30.22,South,180,0.0,8.1,46,0.00,,,0.00,WUHU21623XXSP,2013-04-26 17:42:00,
2013-04-26 10:47:00,73.8,51.6,30.22,South,180,6.0,8.3,46,0.00,,,0.00,WUHU21623XXSP,2013-04-26 17:47:00,
2013-04-26 10:52:00,73.9,51.7,30.21,SW,225,0.0,8.3,46,0.00,,,0.00,WUHU21623XXSP,2013-04-26 17:52:00,
2013-04-26 10:57:00,74.3,52.1,30.21,South,180,6.5,7.4,46,0.00,,,0.00,WUHU21623XXSP,2013-04-26 17:57:00,
2013-04-26 11:02:00,73.8,51.0,30.21,SSE,157,6.9,8.1,45,0.00,,,0.00,WUHU21623XXSP,2013-04-26 18:02:00,
2013-04-26 11:07:00,73.2,50.4,30.21,South,180,5.8,8.1,45,0.00,,,0.00,WUHU21623XXSP,2013-04-26 18:07:00,
2013-04-26 11:12:00,73.6,51.4,30.21,SSW,202,6.9,6.9,46,0.00,,,0.00,WUHU21623XXSP,2013-04-26 18:12:00,
2013-04-26 11:17:00,74.1,51.3,30.22,SSE,157,0.0,9.8,45,0.00,,,0.00,WUHU21623XXSP,2013-04-26 18:17:00,
2013-04-26 11:22:00,74.5,51.6,30.21,South,180,7.6,9.8,45,0.00,,,0.00,WUHU21623XXSP,2013-04-26 18:22:00,
2013-04-26 11:27:00,74.5,51.6,30.22,SSW,202,8.1,8.7,45,0.00,,,0.00,WUHU21623XXSP,2013-04-26 18:27:00,
2013-04-26 11:32:00,74.8,51.3,30.21,SW,225,0.0,8.1,44,0.00,,,0.00,WUHU21623XXSP,2013-04-26 18:32:00,
2013-04-26 11:37:00,74.1,50.0,30.21,SW,225,5.6,5.6,43,0.00,,,0.00,WUHU21623XXSP,2013-04-26 18:37:00,
2013-04-26 11:42:00,73.2,50.4,30.21,SW,225,8.3,8.3,45,0.00,,,0.00,WUHU21623XXSP,2013-04-26 18:42:00,
2013-04-26 11:47:00,73.2,50.4,30.21,WSW,247,0.0,8.3,45,0.00,,,0.00,WUHU21623XXSP,2013-04-26 18:47:00,
2013-04-26 11:52:00,73.4,51.2,30.21,SW,225,8.1,8.1,46,0.00,,,0.00,WUHU21623XXSP,2013-04-26 18:52:00,
2013-04-26 11:57:00,73.9,51.1,30.21,SSW,202,7.2,8.1,45,0.00,,,0.00,WUHU21623XXSP,2013-04-26 18:57:00,
2013-04-26 12:02:00,73.6,50.8,30.21,SSW,202,6.9,7.2,45,0.00,,,0.00,WUHU21623XXSP,2013-04-26 19:02:00,
2013-04-26 12:07:00,73.0,50.3,30.21,SW,225,8.5,8.5,45,0.00,,,0.00,WUHU21623XXSP,2013-04-26 19:07:00,
2013-04-26 12:12:00,72.9,50.8,30.20,South,180,7.6,8.5,46,0.00,,,0.00,WUHU21623XXSP,2013-04-26 19:12:00,
2013-04-26 12:17:00,73.0,50.9,30.20,SSW,202,7.4,9.2,46,0.00,,,0.00,WUHU21623XXSP,2013-04-26 19:17:00,
2013-04-26 12:22:00,73.2,51.1,30.20,SSW,202,8.7,9.2,46,0.00,,,0.00,WUHU21623XXSP,2013-04-26 19:22:00,
2013-04-26 12:27:00,73.9,51.1,30.20,SW,225,6.7,8.7,45,0.00,,,0.00,WUHU21623XXSP,2013-04-26 19:27:00,
2013-04-26 12:32:00,74.3,51.4,30.20,SW,225,8.3,8.3,45,0.00,,,0.00,WUHU21623XXSP,2013-04-26 19:32:00,
2013-04-26 12:37:00,74.3,50.8,30.20,SW,225,6.9,8.3,44,0.00,,,0.00,WUHU21623XXSP,2013-04-26 19:37:00,
2013-04-26 12:42:00,74.1,51.3,30.20,SW,225,6.5,8.3,45,0.00,,,0.00,WUHU21623XXSP,2013-04-26 19:42:00,
2013-04-26 12:47:00,73.9,50.5,30.20,SSW,202,8.7,8.7,44,0.00,,,0.00,WUHU21623XXSP,2013-04-26 19:47:00,
2013-04-26 12:52:00,73.6,50.8,30.20,SW,225,7.8,8.7,45,0.00,,,0.00,WUHU21623XXSP,2013-04-26 19:52:00,
2013-04-26 12:57:00,73.2,50.4,30.20,SW,225,11.4,11.6,45,0.00,,,0.00,WUHU21623XXSP,2013-04-26 19:57:00,
2013-04-26 13:02:00,72.9,50.2,30.20,SSW,202,7.4,11.6,45,0.00,,,0.00,WUHU21623XXSP,2013-04-26 20:02:00,
2013-04-26 13:07:00,72.5,49.8,30.20,SSW,202,10.5,11.6,45,0.00,,,0.00,WUHU21623XXSP,2013-04-26 20:07:00,
2013-04-26 13:12:00,72.5,49.8,30.20,SSW,202,7.2,13.2,45,0.00,,,0.00,WUHU21623XXSP,2013-04-26 20:12:00,
2013-04-26 13:17:00,72.5,49.8,30.20,SW,225,8.3,13.2,45,0.00,,,0.00,WUHU21623XXSP,2013-04-26 20:17:00,
2013-04-26 13:22:00,72.5,49.8,30.20,South,180,8.7,8.7,45,0.00,,,0.00,WUHU21623XXSP,2013-04-26 20:22:00,
2013-04-26 13:27:00,73.0,50.9,30.20,SW,225,6.7,8.7,46,0.00,,,0.00,WUHU21623XXSP,2013-04-26 20:27:00,
2013-04-26 13:32:00,73.2,51.1,30.20,WSW,247,7.4,8.3,46,0.00,,,0.00,WUHU21623XXSP,2013-04-26 20:32:00,
2013-04-26 13:37:00,73.2,51.7,30.20,SSW,202,9.4,9.4,47,0.00,,,0.00,WUHU21623XXSP,2013-04-26 20:37:00,
2013-04-26 13:42:00,73.2,51.1,30.20,SW,225,8.3,10.1,46,0.00,,,0.00,WUHU21623XXSP,2013-04-26 20:42:00,
2013-04-26 13:47:00,73.4,51.2,30.20,SSW,202,6.7,10.1,46,0.00,,,0.00,WUHU21623XXSP,2013-04-26 20:47:00,
2013-04-26 13:52:00,73.2,50.4,30.20,SW,225,7.6,10.1,45,0.00,,,0.00,WUHU21623XXSP,2013-04-26 20:52:00,
2013-04-26 13:57:00,73.0,49.6,30.20,WSW,247,8.1,10.1,44,0.00,,,0.00,WUHU21623XXSP,2013-04-26 20:57:00,
2013-04-26 14:02:00,72.7,50.0,30.20,WSW,247,8.3,11.4,45,0.00,,,0.00,WUHU21623XXSP,2013-04-26 21:02:00,
2013-04-26 14:07:00,72.9,50.2,30.20,WSW,247,6.7,11.4,45,0.00,,,0.00,WUHU21623XXSP,2013-04-26 21:07:00,
2013-04-26 14:12:00,73.4,50.6,30.20,WSW,247,0.0,8.9,45,0.00,,,0.00,WUHU21623XXSP,2013-04-26 21:12:00,
2013-04-26 14:17:00,73.6,50.2,30.20,SSW,202,8.3,8.9,44,0.00,,,0.00,WUHU21623XXSP,2013-04-26 21:17:00,
2013-04-26 14:22:00,73.4,49.4,30.20,WSW,247,6.5,9.4,43,0.00,,,0.00,WUHU21623XXSP,2013-04-26 21:22:00,
2013-04-26 14:27:00,73.6,50.2,30.20,SSW,202,8.7,9.4,44,0.00,,,0.00,WUHU21623XXSP,2013-04-26 21:27:00,
2013-04-26 14:32:00,73.4,49.4,30.20,WSW,247,4.3,8.7,43,0.00,,,0.00,WUHU21623XXSP,2013-04-26 21:32:00,
2013-04-26 14:37:00,73.6,50.2,30.20,WSW,247,11.0,11.0,44,0.00,,,0.00,WUHU21623XXSP,2013-04-26 21:37:00,
2013-04-26 14:42:00,73.9,49.8,30.20,WSW,247,13.6,13.6,43,0.00,,,0.00,WUHU21623XXSP,2013-04-26 21:42:00,
2013-04-26 14:47:00,74.1,50.0,30.20,WSW,247,9.6,13.6,43,0.00,,,0.00,WUHU21623XXSP,2013-04-26 21:47:00,
2013-04-26 14:52:00,74.3,50.2,30.19,SW,225,10.5,10.5,43,0.00,,,0.00,WUHU21623XXSP,2013-04-26 21:52:00,
2013-04-26 14:57:00,73.0,49.0,30.19,South,180,8.7,10.5,43,0.00,,,0.00,WUHU21623XXSP,2013-04-26 21:57:00,
2013-04-26 15:02:00,73.0,49.0,30.19,West,270,5.8,9.4,43,0.00,,,0.00,WUHU21623XXSP,2013-04-26 22:02:00,
2013-04-26 15:07:00,72.7,48.7,30.19,SW,225,10.3,10.3,43,0.00,,,0.00,WUHU21623XXSP,2013-04-26 22:07:00,
2013-04-26 15:12:00,72.9,48.9,30.19,WSW,247,7.4,10.3,43,0.00,,,0.00,WUHU21623XXSP,2013-04-26 22:12:00,
2013-04-26 15:17:00,73.4,49.4,30.19,WSW,247,4.7,8.5,43,0.00,,,0.00,WUHU21623XXSP,2013-04-26 22:17:00,
2013-04-26 15:22:00,73.6,48.2,30.19,WSW,247,6.9,8.7,41,0.00,,,0.00,WUHU21623XXSP,2013-04-26 22:22:00,
2013-04-26 15:27:00,73.6,48.9,30.19,SW,225,8.3,8.7,42,0.00,,,0.00,WUHU21623XXSP,2013-04-26 22:27:00,
2013-04-26 15:32:00,73.8,48.4,30.19,SSW,202,8.3,12.1,41,0.00,,,0.00,WUHU21623XXSP,2013-04-26 22:32:00,
2013-04-26 15:37:00,73.8,49.1,30.19,South,180,8.1,12.1,42,0.00,,,0.00,WUHU21623XXSP,2013-04-26 22:37:00,
2013-04-26 15:42:00,73.2,48.5,30.19,SSW,202,7.4,9.4,42,0.00,,,0.00,WUHU21623XXSP,2013-04-26 22:42:00,
2013-04-26 15:47:00,73.0,48.3,30.19,SW,225,8.3,8.3,42,0.00,,,0.00,WUHU21623XXSP,2013-04-26 22:47:00,
2013-04-26 15:52:00,73.2,48.5,30.19,SW,225,9.4,9.4,42,0.00,,,0.00,WUHU21623XXSP,2013-04-26 22:52:00,
2013-04-26 15:57:00,73.2,48.5,30.19,SW,225,8.7,9.4,42,0.00,,,0.00,WUHU21623XXSP,2013-04-26 22:57:00,
2013-04-26 16:02:00,73.4,48.0,30.19,West,270,6.0,8.7,41,0.00,,,0.00,WUHU21623XXSP,2013-04-26 23:02:00,
2013-04-26 16:07:00,73.6,48.9,30.19,WSW,247,6.9,7.2,42,0.00,,,0.00,WUHU21623XXSP,2013-04-26 23:07:00,
2013-04-26 16:12:00,74.1,48.7,30.19,WSW,247,3.6,7.2,41,0.00,,,0.00,WUHU21623XXSP,2013-04-26 23:12:00,
2013-04-26 16:17:00,74.1,48.7,30.18,WSW,247,0.0,7.2,41,0.00,,,0.00,WUHU21623XXSP,2013-04-26 23:17:00,
2013-04-26 16:22:00,74.3,48.9,30.18,WSW,247,6.5,7.2,41,0.00,,,0.00,WUHU21623XXSP,2013-04-26 23:22:00,
2013-04-26 16:27:00,74.3,48.9,30.18,WSW,247,8.3,8.3,41,0.00,,,0.00,WUHU21623XXSP,2013-04-26 23:27:00,
2013-04-26 16:32:00,74.5,48.4,30.19,WSW,247,6.5,8.3,40,0.00,,,0.00,WUHU21623XXSP,2013-04-26 23:32:00,
2013-04-26 16:37:00,74.1,48.0,30.19,WSW,247,8.1,8.1,40,0.00,,,0.00,WUHU21623XXSP,2013-04-26 23:37:00,
2013-04-26 16:42:00,73.6,47.5,30.18,WSW,247,6.9,8.1,40,0.00,,,0.00,WUHU21623XXSP,2013-04-26 23:42:00,
2013-04-26 16:47:00,73.4,47.4,30.18,WSW,247,9.8,9.8,40,0.00,,,0.00,WUHU21623XXSP,2013-04-26 23:47:00,
2013-04-26 16:52:00,73.8,47.7,30.18,WSW,247,8.5,9.8,40,0.00,,,0.00,WUHU21623XXSP,2013-04-26 23:52:00,
2013-04-26 16:54:00,73.9,47.8,30.18,SW,225,8.5,9.8,40,0.00,,,0.00,WUHU21623XXSP,2013-04-26 23:54:00,
2013-04-26 17:05:00,72.5,46.6,30.18,SSW,202,7.6,7.8,40,0.00,,,0.00,WUHU21623XXSP,2013-04-27 00:05:00,
2013-04-26 17:10:00,72.1,46.2,30.18,WSW,247,5.6,8.1,40,0.00,,,0.00,WUHU21623XXSP,2013-04-27 00:10:00,
2013-04-26 17:15:00,72.7,47.4,30.18,WSW,247,3.6,8.1,41,0.00,,,0.00,WUHU21623XXSP,2013-04-27 00:15:00,
2013-04-26 17:20:00,74.1,48.0,30.18,WSW,247,8.5,8.5,40,0.00,,,0.00,WUHU21623XXSP,2013-04-27 00:20:00,
2013-04-26 17:25:00,74.3,47.5,30.18,WSW,247,7.2,8.5,39,0.00,,,0.00,WUHU21623XXSP,2013-04-27 00:25:00,
2013-04-26 17:30:00,73.9,47.1,30.18,WSW,247,8.3,8.3,39,0.00,,,0.00,WUHU21623XXSP,2013-04-27 00:30:00,
2013-04-26 17:35:00,73.0,46.3,30.18,SW,225,7.4,8.3,39,0.00,,,0.00,WUHU21623XXSP,2013-04-27 00:35:00,
2013-04-26 17:40:00,72.3,46.4,30.18,SW,225,8.7,8.7,40,0.00,,,0.00,WUHU21623XXSP,2013-04-27 00:40:00,
2013-04-26 17:45:00,71.4,45.6,30.18,SW,225,5.1,8.7,40,0.00,,,0.00,WUHU21623XXSP,2013-04-27 00:45:00,
2013-04-26 17:50:00,70.7,44.9,30.18,SW,225,5.1,7.4,40,0.00,,,0.00,WUHU21623XXSP,2013-04-27 00:50:00,
2013-04-26 17:55:00,70.2,44.5,30.18,WSW,247,5.6,5.6,40,0.00,,,0.00,WUHU21623XXSP,2013-04-27 00:55:00,
2013-04-26 18:00:00,70.0,45.0,30.17,SW,225,5.4,5.6,41,0.00,,,0.00,WUHU21623XXSP,2013-04-27 01:00:00,
2013-04-26 18:05:00,70.5,45.4,30.17,WSW,247,0.0,5.4,41,0.00,,,0.00,WUHU21623XXSP,2013-04-27 01:05:00,
2013-04-26 18:10:00,71.2,45.4,30.17,SW,225,5.8,5.8,40,0.00,,,0.00,WUHU21623XXSP,2013-04-27 01:10:00,
2013-04-26 18:15:00,70.9,45.8,30.17,WSW,247,0.0,6.0,41,0.00,,,0.00,WUHU21623XXSP,2013-04-27 01:15:00,
2013-04-26 18:20:00,70.9,45.8,30.16,SW,225,7.6,7.6,41,0.00,,,0.00,WUHU21623XXSP,2013-04-27 01:20:00,
2013-04-26 18:25:00,71.4,46.2,30.16,SSW,202,0.0,7.6,41,0.00,,,0.00,WUHU21623XXSP,2013-04-27 01:25:00,
2013-04-26 18:30:00,73.2,46.5,30.16,SW,225,5.6,5.6,39,0.00,,,0.00,WUHU21623XXSP,2013-04-27 01:30:00,
2013-04-26 18:35:00,74.5,47.7,30.16,WSW,247,8.5,8.5,39,0.00,,,0.00,WUHU21623XXSP,2013-04-27 01:35:00,
2013-04-26 18:40:00,75.0,47.4,30.16,WSW,247,1.8,8.5,38,0.00,,,0.00,WUHU21623XXSP,2013-04-27 01:40:00,
2013-04-26 18:45:00,74.8,47.2,30.15,SW,225,2.9,8.5,38,0.00,,,0.00,WUHU21623XXSP,2013-04-27 01:45:00,
2013-04-26 18:50:00,73.2,45.1,30.15,SSW,202,6.0,8.5,37,0.00,,,0.00,WUHU21623XXSP,2013-04-27 01:50:00,
2013-04-26 18:55:00,71.8,43.8,30.15,SW,225,6.5,7.4,37,0.00,,,0.00,WUHU21623XXSP,2013-04-27 01:55:00,
2013-04-26 19:00:00,70.9,43.0,30.15,WSW,247,5.8,8.1,37,0.00,,,0.00,WUHU21623XXSP,2013-04-27 02:00:00,
2013-04-26 19:05:00,71.4,42.7,30.15,SW,225,7.4,8.3,36,0.00,,,0.00,WUHU21623XXSP,2013-04-27 02:05:00,
2013-04-26 19:10:00,71.4,42.0,30.14,SSW,202,5.6,8.3,35,0.00,,,0.00,WUHU21623XXSP,2013-04-27 02:10:00,
2013-04-26 19:15:00,71.4,42.0,30.14,SW,225,8.7,8.7,35,0.00,,,0.00,WUHU21623XXSP,2013-04-27 02:15:00,
2013-04-26 19:20:00,70.9,41.6,30.14,West,270,8.9,12.1,35,0.00,,,0.00,WUHU21623XXSP,2013-04-27 02:20:00,
2013-04-26 19:25:00,70.0,40.8,30.14,SW,225,6.0,12.1,35,0.00,,,0.00,WUHU21623XXSP,2013-04-27 02:25:00,
2013-04-26 19:30:00,68.5,40.2,30.15,WSW,247,4.5,7.8,36,0.00,,,0.00,WUHU21623XXSP,2013-04-27 02:30:00,
2013-04-26 19:35:00,67.8,39.5,30.15,WSW,247,6.7,8.1,36,0.00,,,0.00,WUHU21623XXSP,2013-04-27 02:35:00,
2013-04-26 19:40:00,67.8,40.3,30.15,SW,225,8.5,8.5,37,0.00,,,0.00,WUHU21623XXSP,2013-04-27 02:40:00,
2013-04-26 19:45:00,67.1,39.6,30.15,SW,225,2.2,8.5,37,0.00,,,0.00,WUHU21623XXSP,2013-04-27 02:45:00,
2013-04-26 19:50:00,66.0,39.4,30.15,SW,225,3.6,6.3,38,0.00,,,0.00,WUHU21623XXSP,2013-04-27 02:50:00,
2013-04-26 19:55:00,65.3,38.7,30.15,SW,225,5.6,7.6,38,0.00,,,0.00,WUHU21623XXSP,2013-04-27 02:55:00,
2013-04-26 20:00:00,64.2,38.4,30.15,WSW,247,6.7,7.8,39,0.00,,,0.00,WUHU21623XXSP,2013-04-27 03:00:00,
2013-04-26 20:05:00,63.7,38.0,30.15,WSW,247,5.1,7.8,39,0.00,,,0.00,WUHU21623XXSP,2013-04-27 03:05:00,
2013-04-26 20:10:00,63.3,38.3,30.15,SW,225,5.6,6.5,40,0.00,,,0.00,WUHU21623XXSP,2013-04-27 03:10:00,
2013-04-26 20:15:00,63.0,38.0,30.15,SW,225,8.5,8.5,40,0.00,,,0.00,WUHU21623XXSP,2013-04-27 03:15:00,
2013-04-26 20:20:00,63.0,38.0,30.16,WSW,247,7.4,8.5,40,0.00,,,0.00,WUHU21623XXSP,2013-04-27 03:20:00,
2013-04-26 20:25:00,63.0,38.0,30.15,WSW,247,7.4,7.4,40,0.00,,,0.00,WUHU21623XXSP,2013-04-27 03:25:00,
2013-04-26 20:30:00,63.1,38.8,30.16,SW,225,10.5,11.0,41,0.00,,,0.00,WUHU21623XXSP,2013-04-27 03:30:00,
2013-04-26 20:35:00,63.0,38.7,30.16,WSW,247,7.8,11.0,41,0.00,,,0.00,WUHU21623XXSP,2013-04-27 03:35:00,
2013-04-26 20:40:00,62.4,38.1,30.16,WSW,247,6.7,7.8,41,0.00,,,0.00,WUHU21623XXSP,2013-04-27 03:40:00,
2013-04-26 20:45:00,62.4,38.1,30.16,SW,225,7.8,7.8,41,0.00,,,0.00,WUHU21623XXSP,2013-04-27 03:45:00,
2013-04-26 20:50:00,62.1,37.8,30.16,SW,225,7.2,8.1,41,0.00,,,0.00,WUHU21623XXSP,2013-04-27 03:50:00,
2013-04-26 20:55:00,61.9,37.7,30.16,WSW,247,2.7,8.1,41,0.00,,,0.00,WUHU21623XXSP,2013-04-27 03:55:00,
2013-04-26 21:00:00,61.9,37.7,30.16,SW,225,4.9,8.1,41,0.00,,,0.00,WUHU21623XXSP,2013-04-27 04:00:00,
2013-04-26 21:01:00,61.9,37.7,30.16,SW,225,4.9,8.1,41,0.00,,,0.00,WUHU21623XXSP,2013-04-27 04:01:00,
2013-04-26 21:06:00,62.4,38.1,30.16,WSW,247,7.8,7.8,41,0.00,,,0.00,WUHU21623XXSP,2013-04-27 04:06:00,
2013-04-26 21:11:00,62.4,38.1,30.16,WSW,247,6.9,9.2,41,0.00,,,0.00,WUHU21623XXSP,2013-04-27 04:11:00,
2013-04-26 21:16:00,62.4,38.1,30.16,West,270,6.7,9.2,41,0.00,,,0.00,WUHU21623XXSP,2013-04-27 04:16:00,
2013-04-26 21:21:00,62.2,37.9,30.16,WSW,247,6.5,8.1,41,0.00,,,0.00,WUHU21623XXSP,2013-04-27 04:21:00,
2013-04-26 21:26:00,62.1,37.8,30.17,West,270,6.9,8.1,41,0.00,,,0.00,WUHU21623XXSP,2013-04-27 04:26:00,
2013-04-26 21:31:00,61.9,37.7,30.17,West,270,8.1,8.1,41,0.00,,,0.00,WUHU21623XXSP,2013-04-27 04:31:00,
2013-04-26 21:36:00,61.5,37.3,30.17,WSW,247,5.4,8.1,41,0.00,,,0.00,WUHU21623XXSP,2013-04-27 04:36:00,
2013-04-26 21:41:00,61.2,37.0,30.17,WSW,247,2.0,7.6,41,0.00,,,0.00,WUHU21623XXSP,2013-04-27 04:41:00,
2013-04-26 21:46:00,61.0,36.9,30.17,WSW,247,0.0,7.6,41,0.00,,,0.00,WUHU21623XXSP,2013-04-27 04:46:00,
2013-04-26 21:51:00,61.0,36.9,30.17,West,270,7.4,7.4,41,0.00,,,0.00,WUHU21623XXSP,2013-04-27 04:51:00,
2013-04-26 21:56:00,60.6,37.1,30.17,West,270,0.0,7.4,42,0.00,,,0.00,WUHU21623XXSP,2013-04-27 04:56:00,
2013-04-26 22:01:00,60.6,37.1,30.17,West,270,3.8,4.7,42,0.00,,,0.00,WUHU21623XXSP,2013-04-27 05:01:00,
2013-04-26 22:06:00,60.1,36.7,30.17,WSW,247,3.6,3.8,42,0.00,,,0.00,WUHU21623XXSP,2013-04-27 05:06:00,
2013-04-26 22:11:00,59.5,37.3,30.17,West,270,2.2,5.4,44,0.00,,,0.00,WUHU21623XXSP,2013-04-27 05:11:00,
2013-04-26 22:16:00,59.2,37.1,30.17,West,270,4.9,5.4,44,0.00,,,0.00,WUHU21623XXSP,2013-04-27 05:16:00,
2013-04-26 22:21:00,58.8,36.7,30.17,WSW,247,2.7,4.9,44,0.00,,,0.00,WUHU21623XXSP,2013-04-27 05:21:00,
2013-04-26 22:26:00,58.8,36.7,30.17,WSW,247,3.6,3.6,44,0.00,,,0.00,WUHU21623XXSP,2013-04-27 05:26:00,
2013-04-26 22:31:00,58.8,36.7,30.16,West,270,5.4,5.4,44,0.00,,,0.00,WUHU21623XXSP,2013-04-27 05:31:00,
2013-04-26 22:36:00,58.8,36.7,30.17,SW,225,3.4,5.4,44,0.00,,,0.00,WUHU21623XXSP,2013-04-27 05:36:00,
2013-04-26 22:41:00,58.6,36.5,30.17,SW,225,0.0,3.4,44,0.00,,,0.00,WUHU21623XXSP,2013-04-27 05:41:00,
2013-04-26 22:46:00,58.1,36.7,30.17,SW,225,1.6,2.5,45,0.00,,,0.00,WUHU21623XXSP,2013-04-27 05:46:00,
2013-04-26 22:51:00,57.7,36.3,30.16,SW,225,0.0,2.5,45,0.00,,,0.00,WUHU21623XXSP,2013-04-27 05:51:00,
2013-04-26 22:56:00,57.0,36.2,30.16,SW,225,0.0,1.3,46,0.00,,,0.00,WUHU21623XXSP,2013-04-27 05:56:00,
2013-04-26 23:01:00,56.8,36.1,30.16,SW,225,0.0,1.3,46,0.00,,,0.00,WUHU21623XXSP,2013-04-27 06:01:00,
2013-04-26 23:06:00,56.5,36.3,30.16,SW,225,3.6,3.6,47,0.00,,,0.00,WUHU21623XXSP,2013-04-27 06:06:00,
2013-04-26 23:11:00,56.1,36.0,30.16,SW,225,2.7,3.6,47,0.00,,,0.00,WUHU21623XXSP,2013-04-27 06:11:00,
2013-04-26 23:16:00,55.9,36.3,30.16,SW,225,4.9,4.9,48,0.00,,,0.00,WUHU21623XXSP,2013-04-27 06:16:00,
2013-04-26 23:21:00,55.8,36.2,30.16,SSW,202,1.8,4.9,48,0.00,,,0.00,WUHU21623XXSP,2013-04-27 06:21:00,
2013-04-26 23:26:00,55.6,36.6,30.16,SSW,202,0.0,2.9,49,0.00,,,0.00,WUHU21623XXSP,2013-04-27 06:26:00,
2013-04-26 23:31:00,55.4,36.4,30.16,SSW,202,0.0,2.9,49,0.00,,,0.00,WUHU21623XXSP,2013-04-27 06:31:00,
2013-04-26 23:36:00,55.2,36.2,30.16,SSW,202,0.0,0.7,49,0.00,,,0.00,WUHU21623XXSP,2013-04-27 06:36:00,
2013-04-26 23:41:00,55.0,36.1,30.16,South,180,7.2,7.2,49,0.00,,,0.00,WUHU21623XXSP,2013-04-27 06:41:00,
2013-04-26 23:46:00,54.7,36.3,30.16,SSW,202,4.0,7.2,50,0.00,,,0.00,WUHU21623XXSP,2013-04-27 06:46:00,
2013-04-26 23:51:00,54.5,36.1,30.15,South,180,7.2,7.2,50,0.00,,,0.00,WUHU21623XXSP,2013-04-27 06:51:00,
2013-04-26 23:56:00,54.3,35.9,30.15,South,180,6.3,7.2,50,0.00,,,0.00,WUHU21623XXSP,2013-04-27 06:56:00,